Flight Track Log - Related Links

Times and Time Zones

All times are in EDT time to prevent confusion due to time zone crossing. See the SWA631 flight status page for this flight to view local times or setup timezone preferences in your user account.

Time Position Orientation Groundspeed Altitude Reporting Facility
EDT Latitude Longitude Course Direction KTS MPH feet Rate Location/Type
Sat 07:55:36 PM 41.8108 -87.7328 267° West 153 176 2,400  Level Chicago Center
Sat 07:56:08 PM 41.8167 -87.7667 283° West 192 221 2,900 414 Climbing Chicago TRACON
Sat 07:57:03 PM 41.8000 -87.8333 251° West 217 250 3,000 52 Climbing Chicago TRACON
Sat 07:58:03 PM 41.7833 -87.9000 251° West 217 250 3,000  Level Chicago TRACON
Sat 07:58:40 PM 41.7817 -87.9447 267° West 223 257 3,000 606 Level Chicago Center
Sat 07:59:42 PM 41.7775 -88.0464 267° West 227 261 4,000 780 Climbing Chicago Center
Sat 08:00:43 PM 41.7886 -88.1386 279° West 250 288 4,600 2,066 Climbing Chicago Center
Sat 08:01:00 PM 41.7316 -88.6234 267° West  Level FlightAware Approximate
Sat 08:01:44 PM 41.8214 -88.2219 298° West 256 295 8,200  Level Chicago Center
Sat 08:02:46 PM 41.8211 -88.3203 270° West 266 306 11,000 2,585 Climbing Chicago Center
Sat 08:03:47 PM 41.8214 -88.4333 270° West 300 345 13,500 2,656 Climbing Chicago Center
Sat 08:04:48 PM 41.8192 -88.5508 269° West 315 362 16,400 2,683 Climbing Chicago Center
Sat 08:05:50 PM 41.8181 -88.6992 269° West 331 381 19,000 2,390 Climbing Chicago Center
Sat 08:06:51 PM 41.8192 -88.8253 271° West 339 390 21,300 2,164 Climbing Chicago Center
Sat 08:07:52 PM 41.8178 -88.9558 269° West 350 403 23,400 1,561 Climbing Chicago Center
Sat 08:08:54 PM 41.8192 -89.0878 271° West 357 411 24,500 1,171 Climbing Chicago Center
Sat 08:09:55 PM 41.8211 -89.2336 271° West 387 445 25,800 1,377 Climbing Chicago Center
Sat 08:10:56 PM 41.8072 -89.3814 263° West 400 460 27,300 1,659 Climbing Chicago Center
Sat 08:11:58 PM 41.7972 -89.5261 265° West 396 456 29,200 1,805 Climbing Chicago Center
Sat 08:12:59 PM 41.7856 -89.6906 265° West 388 447 31,000 1,525 Climbing Chicago Center
Sat 08:14:00 PM 41.7753 -89.8333 265° West 388 447 32,300 1,220 Climbing Chicago Center
Sat 08:15:02 PM 41.7644 -89.9767 264° West 389 448 33,500 1,073 Climbing Chicago Center
Sat 08:16:03 PM 41.7539 -90.1169 264° West 384 442 34,500 787 Climbing Chicago Center
Sat 08:17:04 PM 41.7422 -90.2619 264° West 392 451 35,100 639 Climbing Chicago Center
Sat 08:18:05 PM 41.7289 -90.4136 263° West 405 466 35,800 439 Climbing Chicago Center
Sat 08:19:07 PM 41.7167 -90.5592 264° West 400 460 36,000 98 Climbing Chicago Center
Sat 08:20:08 PM 41.7058 -90.7328 265° West 401 461 36,000  Level Chicago Center
Sat 08:21:09 PM 41.7058 -90.8819 270° West 403 464 36,000  Level Chicago Center
Sat 08:22:10 PM 41.7036 -91.0317 269° West 406 467 36,000  Level Chicago Center
Sat 08:23:11 PM 41.6917 -91.1811 264° West 406 467 36,000  Level Chicago Center
Sat 08:24:13 PM 41.6783 -91.3311 263° West 407 468 36,000  Level Chicago Center
Sat 08:25:14 PM 41.6644 -91.4792 263° West 404 465 36,000  Level Chicago Center
Sat 08:26:15 PM 41.6506 -91.6283 263° West 406 467 36,000  Level Chicago Center
Sat 08:27:16 PM 41.6364 -91.7742 263° West 399 459 36,000  Level Chicago Center
Sat 08:28:18 PM 41.6222 -91.9214 263° West 400 460 36,000  Level Chicago Center
Sat 08:29:19 PM 41.6050 -92.0969 263° West 399 459 36,000  Level Chicago Center
Sat 08:30:20 PM 41.5908 -92.2453 263° West 403 464 36,000  Level Chicago Center
Sat 08:31:21 PM 41.5758 -92.3908 262° West 400 460 36,000  Level Chicago Center
Sat 08:32:22 PM 41.5611 -92.5378 262° West 402 463 36,000  Level Chicago Center
Sat 08:33:17 PM 41.5464 -92.6783 262° West 403 464 36,000  Level Minneapolis Center
Sat 08:34:19 PM 41.5317 -92.8272 263° West 406 467 36,000  Level Minneapolis Center
Sat 08:35:20 PM 41.5156 -92.9761 262° West 409 471 36,000  Level Minneapolis Center
Sat 08:36:21 PM 41.4994 -93.1242 262° West 408 470 36,000  Level Minneapolis Center
Sat 08:37:23 PM 41.4831 -93.2697 261° West 405 466 36,000  Level Minneapolis Center
Sat 08:38:24 PM 41.4636 -93.4475 262° West 406 467 36,000  Level Minneapolis Center
Sat 08:39:26 PM 41.4486 -93.5906 262° West 398 458 36,000  Level Minneapolis Center
Sat 08:40:27 PM 41.4328 -93.7361 262° West 400 460 36,000  Level Minneapolis Center
Sat 08:41:29 PM 41.4164 -93.8822 262° West 402 463 36,000  Level Minneapolis Center
Sat 08:42:30 PM 41.3983 -94.0281 261° West 402 463 36,000  Level Minneapolis Center
Sat 08:43:32 PM 41.3828 -94.1744 262° West 402 463 36,000  Level Minneapolis Center
Sat 08:44:33 PM 41.3611 -94.3489 261° West 402 463 36,000  Level Minneapolis Center
Sat 08:45:34 PM 41.3425 -94.4967 261° West 404 465 36,000  Level Minneapolis Center
Sat 08:46:36 PM 41.3253 -94.6469 261° West 407 468 36,000  Level Minneapolis Center
Sat 08:47:37 PM 41.3078 -94.7972 261° West 411 473 36,000  Level Minneapolis Center
Sat 08:48:39 PM 41.2894 -94.9467 261° West 410 472 36,000  Level Minneapolis Center
Sat 08:49:40 PM 41.2703 -95.0958 260° West 410 472 36,000  Level Minneapolis Center
Sat 08:50:42 PM 41.2517 -95.2453 261° West 410 472 36,000  Level Minneapolis Center
Sat 08:51:43 PM 41.2319 -95.3944 260° West 409 471 36,000  Level Minneapolis Center
Sat 08:52:45 PM 41.2122 -95.5450 260° West 412 474 36,000  Level Minneapolis Center
Sat 08:53:46 PM 41.1961 -95.6694 260° West 412 474 36,000  Level Minneapolis Center
Sat 08:54:47 PM 41.1683 -95.8811 260° West 416 479 36,000  Level Minneapolis Center
Sat 08:55:49 PM 41.1483 -96.0331 260° West 417 480 36,000  Level Minneapolis Center
Sat 08:56:50 PM 41.1281 -96.1828 260° West 413 475 36,000  Level Minneapolis Center
Sat 08:57:52 PM 41.1067 -96.3386 260° West 415 478 36,000  Level Minneapolis Center
Sat 08:58:53 PM 41.0867 -96.4883 260° West 414 476 36,000  Level Minneapolis Center
Sat 08:59:54 PM 41.0647 -96.6397 259° West 415 478 36,000  Level Minneapolis Center
Sat 09:00:56 PM 41.0436 -96.7886 259° West 413 475 36,000  Level Minneapolis Center
Sat 09:01:57 PM 41.0228 -96.9372 260° West 411 473 36,000  Level Minneapolis Center
Sat 09:02:58 PM 41.0014 -97.0869 259° West 413 475 36,000  Level Minneapolis Center
Sat 09:04:00 PM 40.9803 -97.2367 259° West 413 475 36,000  Level Minneapolis Center
Sat 09:05:01 PM 40.9547 -97.4119 259° West 414 476 36,000  Level Minneapolis Center
Sat 09:06:02 PM 40.9322 -97.5619 259° West 415 478 36,000  Level Minneapolis Center
Sat 09:07:04 PM 40.9100 -97.7114 259° West 414 476 36,000  Level Minneapolis Center
Sat 09:08:17 PM 40.8881 -97.8606 259° West 413 475 36,000  Level Minneapolis Center
Sat 09:09:19 PM 40.8606 -98.0403 259° West 414 476 36,000  Level Minneapolis Center
Sat 09:10:20 PM 40.8375 -98.1911 259° West 416 479 36,000  Level Minneapolis Center
Sat 09:11:21 PM 40.8136 -98.3414 258° West 417 480 36,000  Level Minneapolis Center
Sat 09:12:23 PM 40.7906 -98.4914 259° West 416 479 36,000  Level Minneapolis Center
Sat 09:13:24 PM 40.7667 -98.6403 258° West 415 478 36,000  Level Minneapolis Center
Sat 09:14:25 PM 40.7428 -98.7942 258° West 416 479 36,000  Level Minneapolis Center
Sat 09:15:26 PM 40.7183 -98.9453 258° West 418 481 36,000  Level Minneapolis Center
Sat 09:16:27 PM 40.6950 -99.0947 258° West 415 478 36,000  Level Minneapolis Center
Sat 09:17:20 PM 40.6689 -99.2456 257° West 419 482 36,000  Level Denver Center
Sat 09:18:21 PM 40.6444 -99.3958 258° West 418 481 36,000  Level Denver Center
Sat 09:19:23 PM 40.6192 -99.5453 257° West 417 480 36,000  Level Denver Center
Sat 09:20:24 PM 40.5942 -99.6964 258° West 421 484 36,000  Level Denver Center
Sat 09:21:26 PM 40.5703 -99.8469 258° West 420 483 36,000  Level Denver Center
Sat 09:22:27 PM 40.5428 -100.0083 257° West 421 484 36,000  Level Denver Center
Sat 09:23:28 PM 40.5169 -100.1517 257° West 419 482 36,000  Level Denver Center
Sat 09:24:30 PM 40.4911 -100.2942 257° West 416 479 36,000  Level Denver Center
Sat 09:25:31 PM 40.4628 -100.4603 257° West 417 480 36,000  Level Denver Center
Sat 09:26:32 PM 40.4383 -100.6036 257° West 417 480 36,000  Level Denver Center
Sat 09:27:34 PM 40.4092 -100.7700 257° West 416 479 36,000  Level Denver Center
Sat 09:28:47 PM 40.3833 -100.9136 257° West 419 482 36,000  Level Denver Center
Sat 09:29:48 PM 40.3481 -101.1033 256° West 416 479 36,000  Level Denver Center
Sat 09:30:50 PM 40.3219 -101.2453 256° West 418 481 36,000  Level Denver Center
Sat 09:31:51 PM 40.2950 -101.3878 256° West 419 482 36,000  Level Denver Center
Sat 09:32:52 PM 40.2653 -101.5533 257° West 418 481 36,000  Level Denver Center
Sat 09:33:54 PM 40.2394 -101.6972 257° West 424 488 36,000  Level Denver Center
Sat 09:34:55 PM 40.2117 -101.8383 256° West 421 484 36,000  Level Denver Center
Sat 09:35:56 PM 40.1811 -102.0047 257° West 420 483 36,000  Level Denver Center
Sat 09:36:58 PM 40.1542 -102.1453 256° West 418 481 36,000  Level Denver Center
Sat 09:37:59 PM 40.1217 -102.3081 255° West 415 478 36,000  Level Denver Center
Sat 09:39:01 PM 40.0947 -102.4486 256° West 415 478 36,000  Level Denver Center
Sat 09:40:02 PM 40.0675 -102.5894 256° West 417 480 36,000  Level Denver Center
Sat 09:41:04 PM 40.0350 -102.7547 256° West 418 481 36,000  Level Denver Center
Sat 09:42:05 PM 40.0050 -102.9019 255° West 417 480 36,000  Level Denver Center
Sat 09:43:06 PM 39.9764 -103.0500 256° West 418 481 36,000  Level Denver Center
Sat 09:44:08 PM 39.9458 -103.1964 255° West 416 479 36,000  Level Denver Center
Sat 09:45:21 PM 39.9158 -103.3456 255° West 421 484 36,000  Level Denver Center
Sat 09:46:23 PM 39.8806 -103.5203 255° West 426 490 36,000  Level Denver Center
Sat 09:47:24 PM 39.8494 -103.6694 255° West 424 488 36,000  Level Denver Center
Sat 09:48:25 PM 39.8192 -103.8231 256° West 435 501 36,000  Level Denver Center
Sat 09:49:27 PM 39.7836 -103.9961 255° West 426 490 36,000  Level Denver Center
Sat 09:50:28 PM 39.7519 -104.1431 254° West 419 482 36,000  Level Denver Center
Sat 09:51:30 PM 39.7206 -104.2886 254° West 415 478 36,000  Level Denver Center
Sat 09:52:31 PM 39.6894 -104.4350 255° West 417 480 36,000  Level Denver Center
Sat 09:53:32 PM 39.6578 -104.5803 254° West 416 479 36,000  Level Denver Center
Sat 09:54:34 PM 39.6269 -104.7272 255° West 422 486 36,000  Level Denver Center
Sat 09:55:35 PM 39.5967 -104.8608 254° West 409 471 36,000  Level Denver Center
Sat 09:56:36 PM 39.5653 -105.0053 254° West 407 468 36,000  Level Denver Center
Sat 09:57:37 PM 39.5267 -105.1775 254° West 420 483 36,000  Level Denver Center
Sat 09:58:39 PM 39.4944 -105.3214 254° West 411 473 36,000  Level Denver Center
Sat 09:59:40 PM 39.4617 -105.4672 254° West 417 480 36,000  Level Denver Center
Sat 10:00:41 PM 39.4297 -105.6106 254° West 411 473 36,000  Level Denver Center
Sat 10:01:43 PM 39.3978 -105.7553 254° West 412 474 36,000  Level Denver Center
Sat 10:02:44 PM 39.3653 -105.8983 254° West 412 474 36,000  Level Denver Center
Sat 10:03:45 PM 39.3314 -106.0428 253° West 414 476 36,000  Level Denver Center
Sat 10:04:46 PM 39.2997 -106.1800 253° West 414 476 36,000  Level Denver Center
Sat 10:05:47 PM 39.2647 -106.3386 254° West 411 473 36,000  Level Denver Center
Sat 10:06:49 PM 39.2322 -106.4739 253° West 412 474 36,000  Level Denver Center
Sat 10:07:50 PM 39.1994 -106.6089 253° West 411 473 36,000  Level Denver Center
Sat 10:08:51 PM 39.1633 -106.7664 254° West 411 473 36,000  Level Denver Center
Sat 10:09:52 PM 39.1300 -106.9017 252° West 413 475 36,000  Level Denver Center
Sat 10:10:53 PM 39.0931 -107.0586 253° West 411 473 36,000  Level Denver Center
Sat 10:11:54 PM 39.0603 -107.1947 253° West 413 475 36,000  Level Denver Center
Sat 10:12:56 PM 39.0258 -107.3322 252° West 420 483 36,000  Level Denver Center
Sat 10:13:57 PM 38.9875 -107.4917 253° West 417 480 36,000  Level Denver Center
Sat 10:14:58 PM 38.9533 -107.6292 252° West 420 483 36,000  Level Denver Center
Sat 10:15:59 PM 38.9194 -107.7658 252° West 420 483 36,000  Level Denver Center
Sat 10:17:00 PM 38.8803 -107.9275 253° West 423 487 36,000  Level Denver Center
Sat 10:18:01 PM 38.8453 -108.0664 252° West 427 491 36,000  Level Denver Center
Sat 10:19:02 PM 38.8108 -108.2008 252° West 417 480 36,000  Level Denver Center
Sat 10:20:03 PM 38.7725 -108.3567 253° West 409 471 36,000  Level Denver Center
Sat 10:21:04 PM 38.7389 -108.4906 252° West 411 473 36,000  Level Denver Center
Sat 10:22:05 PM 38.7042 -108.6247 252° West 413 475 36,000  Level Denver Center
Sat 10:23:06 PM 38.6644 -108.7808 252° West 413 475 36,000  Level Denver Center
Sat 10:24:07 PM 38.6294 -108.9136 251° West 410 472 36,000  Level Denver Center
Sat 10:25:08 PM 38.5956 -109.0475 252° West 411 473 36,000  Level Denver Center
Sat 10:26:09 PM 38.5539 -109.2022 251° West 408 470 36,000  Level Denver Center
Sat 10:27:10 PM 38.5192 -109.3344 251° West 410 472 36,000  Level Denver Center
Sat 10:28:12 PM 38.4789 -109.4861 251° West 405 466 36,000  Level Denver Center
Sat 10:29:13 PM 38.4444 -109.6164 251° West 403 464 36,000  Level Denver Center
Sat 10:30:14 PM 38.4103 -109.7458 251° West 403 464 36,000  Level Denver Center
Sat 10:31:15 PM 38.3694 -109.8936 251° West 397 457 36,000  Level Denver Center
Sat 10:32:15 PM 38.3350 -110.0244 251° West 404 465 36,000  Level Denver Center
Sat 10:33:16 PM 38.2839 -110.1483 242° Southwest 413 475 36,000  Level Denver Center
Sat 10:34:17 PM 38.2242 -110.2933 242° Southwest 414 476 36,000  Level Denver Center
Sat 10:35:18 PM 38.1733 -110.4194 243° Southwest 418 481 36,000  Level Denver Center
Sat 10:36:19 PM 38.1214 -110.5436 242° Southwest 416 479 36,000  Level Denver Center
Sat 10:37:20 PM 38.0614 -110.6906 243° Southwest 418 481 36,000  Level Denver Center
Sat 10:38:21 PM 38.0103 -110.8150 242° Southwest 417 480 36,000  Level Denver Center
Sat 10:39:22 PM 37.9594 -110.9331 241° Southwest 419 482 36,000  Level Denver Center
Sat 10:40:23 PM 37.8939 -111.0897 242° Southwest 419 482 36,000  Level Denver Center
Sat 10:41:24 PM 37.8389 -111.2194 242° Southwest 419 482 36,000  Level Denver Center
Sat 10:42:25 PM 37.7861 -111.3483 243° Southwest 415 478 36,000  Level Denver Center
Sat 10:43:50 PM 37.7106 -111.5250 242° Southwest 410 472 36,000  Level Denver Center
Sat 10:44:42 PM 37.6669 -111.6264 242° Southwest 407 468 36,000  Level Salt Lake Center
Sat 10:45:43 PM 37.6131 -111.7528 242° Southwest 408 470 36,000  Level Salt Lake Center
Sat 10:46:44 PM 37.5594 -111.8797 242° Southwest 410 472 36,000  Level Salt Lake Center
Sat 10:47:45 PM 37.5042 -112.0072 241° Southwest 414 476 36,000 -98 Level Salt Lake Center
Sat 10:48:47 PM 37.4489 -112.1344 241° Southwest 413 475 35,800 -585 Descending Salt Lake Center
Sat 10:49:48 PM 37.3931 -112.2611 241° Southwest 414 476 34,800 -1,037 Descending Salt Lake Center
Sat 10:50:08 PM 37.3714 -112.3106 241° Southwest 410 472 34,400 -1,180 Descending Los Angeles Center
Sat 10:50:49 PM 37.3283 -112.4111 242° Southwest 408 470 33,600 -984 Descending Salt Lake Center
Sat 10:51:09 PM 37.3169 -112.4356 240° Southwest 407 468 33,400 -963 Descending Los Angeles Center
Sat 10:52:10 PM 37.2614 -112.5581 240° Southwest 403 464 32,300 -1,096 Descending Los Angeles Center
Sat 10:52:53 PM 37.2192 -112.6550 241° Southwest 398 458 31,500 -1,049 Descending Salt Lake Center
Sat 10:53:53 PM 37.1664 -112.7758 241° Southwest 394 453 30,500 -992 Descending Salt Lake Center
Sat 10:54:54 PM 37.1128 -112.8939 240° Southwest 390 449 29,500 -889 Descending Salt Lake Center
Sat 10:55:14 PM 37.1028 -112.9172 242° Southwest 387 445 29,300 -1,037 Descending Los Angeles Center
Sat 10:56:15 PM 37.0411 -113.0550 241° Southwest 379 436 28,100 -1,131 Descending Los Angeles Center
Sat 10:57:16 PM 36.9917 -113.1661 241° Southwest 368 423 27,000 -1,033 Descending Los Angeles Center
Sat 10:58:17 PM 36.9425 -113.2750 241° Southwest 362 417 26,000 -976 Descending Los Angeles Center
Sat 10:59:19 PM 36.8939 -113.3836 241° Southwest 358 412 25,000 -976 Descending Los Angeles Center
Sat 11:00:20 PM 36.8456 -113.4906 241° Southwest 355 409 24,000 -984 Descending Los Angeles Center
Sat 11:01:21 PM 36.7969 -113.5967 240° Southwest 352 405 23,000 -984 Descending Los Angeles Center
Sat 11:02:22 PM 36.7486 -113.7039 241° Southwest 354 407 22,000 -1,171 Descending Los Angeles Center
Sat 11:03:24 PM 36.7019 -113.8089 241° Southwest 350 403 20,600 -1,268 Descending Los Angeles Center
Sat 11:04:25 PM 36.6511 -113.9172 240° Southwest 358 412 19,400 -1,033 Descending Los Angeles Center
Sat 11:05:26 PM 36.5983 -114.0339 241° Southwest 379 436 18,500 -1,230 Descending Los Angeles Center
Sat 11:06:27 PM 36.5464 -114.1481 241° Southwest 382 440 16,900 -2,079 Descending Los Angeles Center
Sat 11:07:07 PM 36.5056 -114.2436 242° Southwest 380 437 15,000 -2,361 Descending Los Angeles Center
Sat 11:07:28 PM 36.4922 -114.2675 235° Southwest 369 425 14,500 -2,000 Descending Los Angeles Center
Sat 11:07:49 PM 36.4722 -114.3167 243° Southwest 357 411 13,600 -1,935 Descending Los Angeles Center
Sat 11:08:30 PM 36.4431 -114.3733 237° Southwest 357 411 12,500 -1,151 Descending Los Angeles Center
Sat 11:09:02 PM 36.4139 -114.4439 243° Southwest 332 382 12,200 -492 Descending Los Angeles Center
Sat 11:09:31 PM 36.3972 -114.4708 232° Southwest 331 381 12,000 -218 Descending Los Angeles Center
Sat 11:09:57 PM 36.3497 -114.4950 202° Southwest 323 372 12,000 -492 Level Los Angeles Center
Sat 11:10:32 PM 36.3139 -114.5131 202° Southwest 327 376 11,500 -1,417 Descending Los Angeles Center
Sat 11:11:09 PM 36.2806 -114.5828 239° Southwest 295 339 10,300 -1,475 Descending Los Angeles Center
Sat 11:11:33 PM 36.2697 -114.5994 231° Southwest 298 343 10,000 -1,279 Descending Los Angeles Center
Sat 11:12:10 PM 36.2319 -114.6658 235° Southwest 289 333 9,000 -1,452 Descending Los Angeles Center
Sat 11:12:35 PM 36.2139 -114.6961 234° Southwest 288 331 8,500 -1,309 Descending Los Angeles Center
Sat 11:13:05 PM 36.1917 -114.7381 237° Southwest 281 323 7,800 -1,180 Descending Los Angeles Center
Sat 11:13:36 PM 36.1708 -114.7747 235° Southwest 279 321 7,300 -700 Descending Los Angeles Center
Sat 11:14:05 PM 36.1497 -114.8136 236° Southwest 261 300 7,100 -492 Descending Los Angeles Center
Sat 11:14:37 PM 36.1308 -114.8431 232° Southwest 257 296 6,800 -764 Descending Los Angeles Center
Sat 11:15:00 PM 36.1183 -114.8667 237° Southwest 218 251 6,400 -984 Descending Los Angeles Center
Sat 11:15:38 PM 36.0994 -114.8992 234° Southwest 225 259 5,800 -1,000 Descending Los Angeles Center
Sat 11:15:54 PM 36.0908 -114.9186 241° Southwest 199 229 5,500 -968 Descending Los Angeles Center
Sat 11:16:40 PM 36.0706 -114.9550 235° Southwest 206 237 4,800 -984 Descending Los Angeles Center
Sat 11:16:55 PM 36.0728 -114.9750 278° West 192 221 4,500 -984 Descending Los Angeles Center
Sat 11:17:41 PM 36.0750 -115.0178 274° West 187 215 3,800 -984 Descending Los Angeles Center
Sat 11:17:56 PM 36.0733 -115.0361 264° West 184 212 3,500 -984 Descending Los Angeles Center
Sat 11:18:42 PM 36.0742 -115.0789 271° West 182 209 2,800 -841 Descending Los Angeles Center
Sat 11:19:43 PM 36.0742 -115.1364 270° West 175 201 2,000 -787 Descending Los Angeles Center
Sat 11:21:00 PM 36.0667 -115.1500 219° Southwest  Level FlightAware Approximate

Login

Don't have an account? Register now (free) for customized features, flight alerts, and more!